createdAt,value
2022-10-10T00:01:33.117Z,5.97
2022-10-10T00:04:03.023Z,5.97
2022-10-10T00:06:33.225Z,6.97
2022-10-10T00:09:03.550Z,6.73
2022-10-10T00:11:32.204Z,5.17
2022-10-10T00:14:00.972Z,5.90
2022-10-10T00:16:30.833Z,5.20
2022-10-10T00:18:59.297Z,5.27
2022-10-10T00:21:27.683Z,5.17
2022-10-10T00:23:56.154Z,5.00
2022-10-10T00:26:24.567Z,5.73
2022-10-10T00:28:53.111Z,4.93
2022-10-10T00:31:21.558Z,6.47
2022-10-10T00:33:51.608Z,4.87
2022-10-10T00:36:20.664Z,4.47
2022-10-10T00:38:49.559Z,4.63
2022-10-10T00:41:18.121Z,4.03
2022-10-10T00:44:02.237Z,4.13
2022-10-10T00:46:30.749Z,3.87
2022-10-10T00:49:00.846Z,3.53
2022-10-10T00:51:29.556Z,3.33
2022-10-10T00:54:01.038Z,3.70
2022-10-10T00:56:33.062Z,3.30
2022-10-10T00:59:07.170Z,3.87
2022-10-10T01:01:36.175Z,3.90
2022-10-10T01:04:06.534Z,3.90
2022-10-10T01:06:35.515Z,3.93
2022-10-10T01:09:04.039Z,3.30
2022-10-10T01:11:49.787Z,3.83
2022-10-10T01:14:30.160Z,3.80
2022-10-10T01:17:05.797Z,4.07
2022-10-10T01:20:12.118Z,3.30
2022-10-10T01:22:53.645Z,3.20
2022-10-10T01:25:29.991Z,3.67
2022-10-10T01:28:03.491Z,3.93
2022-10-10T01:30:35.875Z,4.50
2022-10-10T01:33:11.034Z,3.63
2022-10-10T01:35:50.999Z,3.90
2022-10-10T01:38:29.555Z,3.77
2022-10-10T01:41:05.842Z,3.57
2022-10-10T01:43:34.332Z,3.10
2022-10-10T01:46:12.842Z,3.30
2022-10-10T01:48:42.298Z,3.23
2022-10-10T01:51:33.188Z,3.00
2022-10-10T01:54:14.622Z,3.10
2022-10-10T01:56:53.033Z,3.20
2022-10-10T01:59:35.984Z,3.27
2022-10-10T02:02:13.137Z,3.03
2022-10-10T02:04:48.846Z,3.00
2022-10-10T02:07:25.050Z,3.03
2022-10-10T02:09:55.096Z,3.13
2022-10-10T02:12:24.606Z,3.23
2022-10-10T02:14:58.363Z,3.50
2022-10-10T02:17:28.331Z,3.27
2022-10-10T02:20:00.155Z,3.00
2022-10-10T02:22:29.903Z,3.40
2022-10-10T02:24:58.363Z,3.20
2022-10-10T02:27:33.546Z,3.67
2022-10-10T02:30:03.839Z,2.97
2022-10-10T02:32:39.601Z,3.03
2022-10-10T02:35:11.361Z,2.93
2022-10-10T02:37:41.833Z,3.33
2022-10-10T02:40:13.390Z,3.30
2022-10-10T02:42:42.288Z,3.33
2022-10-10T02:45:11.541Z,3.10
2022-10-10T02:47:41.448Z,3.10
2022-10-10T02:50:10.457Z,3.23
2022-10-10T02:52:39.021Z,3.37
2022-10-10T02:55:08.578Z,3.30
2022-10-10T02:57:37.012Z,3.20
2022-10-10T03:00:06.048Z,3.60
2022-10-10T03:02:34.698Z,3.50
2022-10-10T03:05:05.907Z,3.07
2022-10-10T03:07:34.696Z,3.63
2022-10-10T03:10:03.490Z,3.23
2022-10-10T03:12:31.949Z,3.97
2022-10-10T03:15:00.368Z,3.67
2022-10-10T03:17:28.774Z,3.83
2022-10-10T03:19:57.416Z,3.50
2022-10-10T03:22:27.330Z,3.57
2022-10-10T03:24:55.706Z,3.93
2022-10-10T03:27:24.115Z,3.60
2022-10-10T03:29:52.538Z,3.30
2022-10-10T03:32:20.944Z,3.90
2022-10-10T03:34:49.469Z,3.70
2022-10-10T03:37:17.959Z,3.73
2022-10-10T03:39:47.857Z,5.33
2022-10-10T03:42:16.527Z,4.70
2022-10-10T03:44:44.917Z,3.87
2022-10-10T03:47:13.431Z,3.87
2022-10-10T03:49:42.096Z,4.50
2022-10-10T03:52:10.645Z,3.93
2022-10-10T03:54:39.024Z,3.80
2022-10-10T03:57:09.135Z,3.60
2022-10-10T03:59:37.549Z,3.60
2022-10-10T04:02:05.993Z,4.03
2022-10-10T04:04:34.540Z,3.90
2022-10-10T04:07:02.943Z,4.37
2022-10-10T04:09:31.923Z,5.13
2022-10-10T04:12:00.515Z,3.83
2022-10-10T04:14:30.334Z,3.77
2022-10-10T04:17:02.911Z,3.90
2022-10-10T04:19:31.903Z,3.80
2022-10-10T04:22:00.347Z,3.90
2022-10-10T04:24:28.889Z,3.97
2022-10-10T04:26:57.443Z,3.90
2022-10-10T04:29:25.861Z,4.63
2022-10-10T04:31:55.636Z,5.07
2022-10-10T04:34:24.109Z,5.47
2022-10-10T04:36:52.542Z,5.17
2022-10-10T04:39:21.059Z,5.03
2022-10-10T04:41:50.125Z,3.20
2022-10-10T04:44:18.792Z,4.47
2022-10-10T04:46:47.490Z,5.80
2022-10-10T04:49:17.376Z,6.70
2022-10-10T04:51:45.775Z,4.67
2022-10-10T04:54:15.097Z,4.27
2022-10-10T04:56:43.581Z,4.23
2022-10-10T04:59:12.092Z,4.90
2022-10-10T05:01:40.596Z,4.70
2022-10-10T05:04:09.046Z,4.33
2022-10-10T05:06:38.817Z,4.83
2022-10-10T05:09:07.460Z,4.97
2022-10-10T05:11:35.894Z,7.03
2022-10-10T05:14:04.407Z,7.33
2022-10-10T05:16:32.851Z,5.23
2022-10-10T05:19:01.810Z,4.83
2022-10-10T05:21:31.135Z,4.23
2022-10-10T05:24:00.973Z,4.87
2022-10-10T05:26:29.414Z,4.30
2022-10-10T05:28:57.835Z,4.20
2022-10-10T05:31:26.223Z,4.37
2022-10-10T05:33:55.015Z,5.03
2022-10-10T05:36:23.553Z,6.10
2022-10-10T05:38:52.118Z,4.40
2022-10-10T05:41:21.965Z,3.90
2022-10-10T05:43:50.471Z,5.17
2022-10-10T05:46:20.387Z,4.70
2022-10-10T05:48:48.917Z,4.87
2022-10-10T05:51:17.327Z,5.30
2022-10-10T05:53:45.866Z,4.43
2022-10-10T05:56:15.543Z,3.87
2022-10-10T05:58:45.917Z,4.17
2022-10-10T06:01:14.353Z,4.97
2022-10-10T06:03:42.776Z,5.13
2022-10-10T06:06:11.204Z,5.57
2022-10-10T06:08:39.580Z,5.40
2022-10-10T06:11:09.270Z,4.57
2022-10-10T06:13:41.061Z,6.60
2022-10-10T06:16:11.556Z,4.93
2022-10-10T06:18:40.059Z,4.53
2022-10-10T06:21:09.253Z,4.60
2022-10-10T06:23:37.757Z,4.30
2022-10-10T06:26:06.230Z,5.07
2022-10-10T06:28:35.423Z,6.33
2022-10-10T06:31:06.257Z,9.43
2022-10-10T06:33:38.001Z,5.30
2022-10-10T06:36:07.832Z,6.20
2022-10-10T06:38:38.621Z,6.53
2022-10-10T06:41:07.985Z,6.90
2022-10-10T06:43:36.449Z,5.50
2022-10-10T06:46:05.041Z,5.93
2022-10-10T06:48:35.320Z,8.00
2022-10-10T06:51:06.911Z,6.37
2022-10-10T06:53:36.018Z,6.17
2022-10-10T06:56:04.662Z,7.20
2022-10-10T06:58:33.688Z,9.87
2022-10-10T07:01:03.955Z,8.20
2022-10-10T07:03:33.083Z,8.73
2022-10-10T07:06:04.685Z,8.63
2022-10-10T07:08:33.327Z,9.47
2022-10-10T07:11:02.182Z,9.13
2022-10-10T07:13:31.011Z,7.23
2022-10-10T07:15:59.462Z,6.37
2022-10-10T07:18:28.006Z,5.70
2022-10-10T07:20:58.151Z,5.83
2022-10-10T07:23:28.942Z,6.93
2022-10-10T07:26:01.499Z,6.40
2022-10-10T07:28:30.226Z,6.40
2022-10-10T07:31:02.069Z,6.60
2022-10-10T07:33:33.506Z,5.80
2022-10-10T07:36:02.041Z,5.70
2022-10-10T07:38:32.273Z,5.53
2022-10-10T07:41:01.605Z,5.80
2022-10-10T07:43:30.023Z,11.70
2022-10-10T07:45:58.470Z,5.30
2022-10-10T07:48:26.938Z,4.60
2022-10-10T07:50:55.403Z,5.27
2022-10-10T07:53:24.179Z,5.70
2022-10-10T07:55:54.066Z,8.57
2022-10-10T07:58:22.549Z,6.37
2022-10-10T08:00:51.001Z,6.47
2022-10-10T08:03:19.541Z,7.83
2022-10-10T08:05:48.107Z,8.80
2022-10-10T08:08:16.509Z,10.80
2022-10-10T08:10:45.664Z,7.87
2022-10-10T08:13:15.564Z,9.63
2022-10-10T08:15:44.074Z,9.73
2022-10-10T08:18:12.498Z,9.20
2022-10-10T08:20:41.739Z,8.57
2022-10-10T08:23:10.237Z,10.67
2022-10-10T08:25:38.653Z,7.40
2022-10-10T08:28:07.164Z,6.70
2022-10-10T08:30:42.341Z,7.60
2022-10-10T08:33:10.923Z,7.03
2022-10-10T08:35:39.976Z,7.27
2022-10-10T08:38:09.032Z,6.93
2022-10-10T08:40:44.423Z,7.73
2022-10-10T08:43:23.350Z,7.43
2022-10-10T08:45:55.826Z,7.27
2022-10-10T08:48:29.129Z,8.80
2022-10-10T08:51:01.353Z,8.50
2022-10-10T08:53:37.015Z,9.47
2022-10-10T08:56:07.997Z,8.17
2022-10-10T08:58:40.107Z,9.17
2022-10-10T09:01:15.056Z,8.70
2022-10-10T09:03:47.684Z,8.20
2022-10-10T09:06:33.617Z,7.93
2022-10-10T09:09:11.563Z,8.67
2022-10-10T09:11:57.860Z,8.63
2022-10-10T09:14:37.000Z,9.20
2022-10-10T09:17:16.507Z,8.70
2022-10-10T09:19:55.032Z,8.80
2022-10-10T09:22:27.404Z,9.43
2022-10-10T09:25:00.098Z,7.80
2022-10-10T09:27:33.358Z,8.40
2022-10-10T09:30:06.005Z,8.97
2022-10-10T09:32:41.646Z,10.40
2022-10-10T09:35:17.878Z,8.50
2022-10-10T09:37:49.913Z,8.83
2022-10-10T09:40:25.265Z,8.23
2022-10-10T09:42:54.773Z,8.33
2022-10-10T09:45:29.728Z,10.50
2022-10-10T09:47:59.826Z,6.60
2022-10-10T09:50:28.510Z,8.73
2022-10-10T09:52:58.602Z,8.40
2022-10-10T09:55:30.070Z,7.97
2022-10-10T09:58:05.623Z,7.50
2022-10-10T10:00:38.197Z,7.80
2022-10-10T10:03:18.899Z,7.47
2022-10-10T10:05:55.462Z,8.63
2022-10-10T10:08:27.685Z,8.23
2022-10-10T10:10:59.431Z,8.63
2022-10-10T10:13:31.457Z,8.57
2022-10-10T10:16:07.062Z,8.63
2022-10-10T10:18:47.902Z,7.13
2022-10-10T10:21:20.314Z,7.60
2022-10-10T10:23:55.785Z,7.10
2022-10-10T10:26:28.092Z,7.00
2022-10-10T10:28:58.968Z,6.77
2022-10-10T10:31:44.790Z,7.10
2022-10-10T10:34:43.266Z,5.80
2022-10-10T10:37:23.347Z,6.47
2022-10-10T10:40:11.364Z,7.80
2022-10-10T10:42:53.969Z,6.13
2022-10-10T10:45:28.558Z,6.37
2022-10-10T10:48:04.387Z,7.47
2022-10-10T10:50:45.929Z,6.80
2022-10-10T10:53:24.842Z,6.97
2022-10-10T10:56:04.187Z,6.07
2022-10-10T10:59:22.586Z,7.77
2022-10-10T11:01:57.935Z,6.50
2022-10-10T11:05:22.509Z,7.00
2022-10-10T11:07:49.395Z,6.67
2022-10-10T11:10:29.731Z,7.80
2022-10-10T11:13:08.337Z,6.53
2022-10-10T11:18:36.647Z,7.33
2022-10-10T11:21:10.253Z,7.17
2022-10-10T11:23:44.770Z,7.47
2022-10-10T11:26:19.420Z,7.53
2022-10-10T11:28:52.573Z,8.30
2022-10-10T11:31:25.445Z,8.90
2022-10-10T11:34:00.956Z,8.97
2022-10-10T11:36:32.664Z,8.43
2022-10-10T11:39:15.378Z,9.27
2022-10-10T11:41:49.032Z,8.10
2022-10-10T11:44:26.080Z,8.27
2022-10-10T11:47:00.373Z,7.87
2022-10-10T11:49:37.270Z,8.97
2022-10-10T11:52:34.752Z,8.23
2022-10-10T11:55:11.652Z,6.87
2022-10-10T11:57:44.399Z,7.00
2022-10-10T12:00:16.056Z,7.30
2022-10-10T12:02:46.368Z,7.07
2022-10-10T12:05:23.029Z,7.10
2022-10-10T12:08:05.985Z,7.00
2022-10-10T12:10:40.402Z,8.17
2022-10-10T12:13:29.123Z,8.93
2022-10-10T12:15:59.997Z,8.30
2022-10-10T12:18:32.312Z,8.37
2022-10-10T12:21:07.396Z,8.83
2022-10-10T12:23:36.080Z,8.97
2022-10-10T12:26:06.071Z,7.40
2022-10-10T12:28:37.865Z,8.03
2022-10-10T12:31:30.505Z,8.10
2022-10-10T12:34:15.540Z,8.70
2022-10-10T12:37:04.086Z,9.83
2022-10-10T12:39:40.372Z,9.80
2022-10-10T12:42:29.580Z,10.17
2022-10-10T12:44:58.111Z,11.27
2022-10-10T12:47:59.972Z,9.90
2022-10-10T12:50:27.295Z,9.87
2022-10-10T12:52:58.950Z,10.60
2022-10-10T12:55:30.482Z,10.93
2022-10-10T12:58:03.729Z,10.53
2022-10-10T13:00:40.603Z,9.63
2022-10-10T13:03:17.797Z,9.67
2022-10-10T13:05:48.593Z,10.43
2022-10-10T13:08:19.955Z,11.47
2022-10-10T13:11:04.341Z,14.23
2022-10-10T13:13:34.830Z,12.33
2022-10-10T13:16:09.348Z,11.20
2022-10-10T13:18:40.184Z,12.23
2022-10-10T13:21:10.453Z,13.87
2022-10-10T13:23:43.310Z,14.20
2022-10-10T13:26:23.527Z,14.07
2022-10-10T13:28:57.202Z,14.13
2022-10-10T13:31:26.572Z,14.63
2022-10-10T13:33:59.676Z,16.53
2022-10-10T13:36:30.319Z,14.63
2022-10-10T13:38:59.437Z,14.00
2022-10-10T13:41:29.036Z,14.13
2022-10-10T13:43:58.956Z,12.40
2022-10-10T13:46:32.654Z,11.27
2022-10-10T13:49:01.968Z,11.50
2022-10-10T13:51:44.783Z,12.00
2022-10-10T13:54:37.895Z,11.83
2022-10-10T13:57:12.065Z,11.90
2022-10-10T13:59:42.864Z,12.17
2022-10-10T14:02:15.204Z,13.27
2022-10-10T14:04:49.555Z,11.60
2022-10-10T14:07:21.986Z,11.97
2022-10-10T14:09:55.523Z,12.33
2022-10-10T14:12:29.985Z,13.03
2022-10-10T14:15:00.835Z,13.07
2022-10-10T14:17:30.240Z,13.17
2022-10-10T14:19:59.136Z,10.17
2022-10-10T14:22:27.742Z,11.33
2022-10-10T14:24:56.260Z,10.60
2022-10-10T14:27:26.932Z,9.53
2022-10-10T14:29:58.375Z,10.30
2022-10-10T14:32:29.091Z,9.90
2022-10-10T14:34:57.501Z,8.93
2022-10-10T14:37:27.791Z,10.83
2022-10-10T14:39:57.288Z,8.87
2022-10-10T14:42:27.255Z,10.00
2022-10-10T14:44:55.676Z,9.13
2022-10-10T14:47:26.115Z,9.60
2022-10-10T14:49:57.407Z,9.17
2022-10-10T14:52:25.928Z,10.03
2022-10-10T14:54:54.828Z,10.80
2022-10-10T14:57:23.331Z,11.27
2022-10-10T14:59:51.750Z,11.07
2022-10-10T15:02:22.367Z,12.03
2022-10-10T15:04:51.468Z,10.67
2022-10-10T15:07:21.361Z,10.67
2022-10-10T15:12:41.339Z,11.10
2022-10-10T15:15:11.222Z,11.40
2022-10-10T15:17:39.914Z,11.53
2022-10-10T15:20:10.683Z,12.27
2022-10-10T15:22:40.830Z,11.70
2022-10-10T15:25:10.527Z,11.97
2022-10-10T15:27:39.418Z,12.13
2022-10-10T15:30:09.214Z,16.60
2022-10-10T15:32:40.581Z,14.53
2022-10-10T15:35:12.877Z,11.97
2022-10-10T15:37:44.300Z,13.57
2022-10-10T15:40:14.512Z,13.10
2022-10-10T15:42:42.935Z,12.93
2022-10-10T15:45:12.251Z,12.90
2022-10-10T15:47:46.313Z,11.77
2022-10-10T15:50:15.433Z,10.80
2022-10-10T15:52:45.317Z,10.17
2022-10-10T15:55:13.778Z,10.67
2022-10-10T15:57:42.181Z,11.30
2022-10-10T16:00:11.452Z,11.83
2022-10-10T16:02:42.864Z,11.20
2022-10-10T16:05:11.590Z,14.60
2022-10-10T16:07:47.717Z,22.30
2022-10-10T16:10:18.514Z,21.40
2022-10-10T16:12:47.136Z,15.60
2022-10-10T16:15:15.656Z,21.43
2022-10-10T16:17:44.082Z,11.83
2022-10-10T16:20:13.148Z,14.03
2022-10-10T16:22:41.562Z,16.20
2022-10-10T16:25:21.770Z,13.63
2022-10-10T16:27:52.843Z,14.03
2022-10-10T16:30:21.726Z,18.13
2022-10-10T16:32:50.546Z,13.60
2022-10-10T16:35:19.358Z,17.80
2022-10-10T16:37:47.883Z,14.93
2022-10-10T16:40:16.321Z,18.90
2022-10-10T16:42:44.715Z,15.57
2022-10-10T16:45:14.546Z,15.83
2022-10-10T16:47:42.940Z,21.23
2022-10-10T16:50:11.836Z,19.27
2022-10-10T16:52:41.755Z,16.27
2022-10-10T16:55:11.412Z,15.37
2022-10-10T16:57:40.300Z,14.83
2022-10-10T17:00:10.665Z,14.80
2022-10-10T17:02:42.335Z,12.03
2022-10-10T17:05:11.170Z,10.97
2022-10-10T17:07:39.572Z,10.30
2022-10-10T17:10:08.797Z,12.00
2022-10-10T17:12:37.223Z,13.03
2022-10-10T17:15:06.829Z,13.47
2022-10-10T17:17:35.865Z,13.10
2022-10-10T17:20:06.883Z,13.10
2022-10-10T17:22:35.374Z,13.73
2022-10-10T17:25:03.822Z,13.67
2022-10-10T17:27:32.200Z,13.47
2022-10-10T17:30:00.784Z,13.77
2022-10-10T17:32:29.197Z,12.87
2022-10-10T17:34:58.519Z,13.63
2022-10-10T17:37:28.475Z,13.47
2022-10-10T17:39:56.908Z,13.67
2022-10-10T17:42:25.379Z,13.97
2022-10-10T17:44:56.846Z,13.73
2022-10-10T17:47:25.259Z,14.60
2022-10-10T17:49:53.925Z,15.73
2022-10-10T17:52:24.863Z,15.93
2022-10-10T17:54:54.703Z,18.13
2022-10-10T17:57:23.214Z,18.57
2022-10-10T17:59:51.656Z,21.60
2022-10-10T18:02:20.789Z,18.60
2022-10-10T18:04:50.202Z,16.40
2022-10-10T18:07:18.977Z,15.20
2022-10-10T18:09:47.857Z,14.33
2022-10-10T18:12:17.730Z,16.50
2022-10-10T18:14:46.382Z,16.73
2022-10-10T18:17:15.233Z,24.07
2022-10-10T18:19:43.756Z,31.00
2022-10-10T18:22:12.307Z,18.43
2022-10-10T18:24:40.890Z,18.60
2022-10-10T18:27:09.369Z,18.13
2022-10-10T18:29:39.729Z,18.13
2022-10-10T18:32:08.357Z,17.70
2022-10-10T18:34:36.976Z,17.40
2022-10-10T18:37:06.668Z,16.83
2022-10-10T18:39:36.042Z,18.87
2022-10-10T18:42:04.731Z,21.27
2022-10-10T18:44:33.153Z,19.33
2022-10-10T18:47:03.008Z,18.07
2022-10-10T18:49:31.389Z,20.77
2022-10-10T18:51:59.794Z,17.87
2022-10-10T18:54:30.256Z,16.97
2022-10-10T18:57:00.540Z,18.63
2022-10-10T18:59:29.085Z,17.37
2022-10-10T19:01:57.497Z,16.87
2022-10-10T19:04:28.774Z,17.43
2022-10-10T19:06:57.886Z,17.03
2022-10-10T19:09:26.919Z,19.23
2022-10-10T19:11:55.661Z,20.40
2022-10-10T19:14:24.029Z,19.07
2022-10-10T19:16:52.512Z,19.10
2022-10-10T19:19:21.260Z,18.87
2022-10-10T19:21:52.527Z,21.30
2022-10-10T19:24:22.504Z,17.63
2022-10-10T19:26:53.476Z,17.57
2022-10-10T19:29:22.740Z,16.40
2022-10-10T19:31:51.554Z,18.40
2022-10-10T19:34:20.142Z,18.50
2022-10-10T19:36:48.694Z,17.73
2022-10-10T19:39:18.493Z,17.43
2022-10-10T19:41:46.877Z,16.63
2022-10-10T19:44:15.285Z,17.30
2022-10-10T19:46:43.703Z,16.83
2022-10-10T19:49:12.401Z,17.77
2022-10-10T19:51:40.819Z,18.47
2022-10-10T19:54:09.228Z,18.07
2022-10-10T19:56:39.056Z,16.60
2022-10-10T19:59:07.488Z,17.70
2022-10-10T20:01:35.974Z,19.13
2022-10-10T20:04:04.851Z,18.63
2022-10-10T20:06:33.291Z,18.97
2022-10-10T20:09:01.750Z,18.20
2022-10-10T20:11:31.063Z,18.40
2022-10-10T20:14:01.917Z,18.93
2022-10-10T20:16:30.491Z,18.20
2022-10-10T20:18:59.959Z,20.70
2022-10-10T20:21:31.704Z,18.57
2022-10-10T20:24:00.859Z,18.60
2022-10-10T20:26:29.458Z,18.73
2022-10-10T20:29:00.817Z,20.03
2022-10-10T20:31:30.898Z,20.63
2022-10-10T20:34:01.816Z,19.57
2022-10-10T20:36:31.567Z,19.47
2022-10-10T20:39:01.702Z,19.10
2022-10-10T20:41:32.965Z,21.10
2022-10-10T20:44:05.267Z,19.67
2022-10-10T20:46:35.610Z,18.33
2022-10-10T20:49:05.798Z,18.03
2022-10-10T20:51:34.336Z,18.50
2022-10-10T20:54:05.147Z,18.87
2022-10-10T20:56:35.197Z,18.30
2022-10-10T20:59:05.319Z,17.50
2022-10-10T21:01:34.812Z,17.60
2022-10-10T21:04:03.298Z,16.10
2022-10-10T21:06:34.497Z,15.90
2022-10-10T21:09:05.780Z,15.83
2022-10-10T21:11:34.811Z,15.77
2022-10-10T21:14:04.842Z,16.07
2022-10-10T21:16:35.093Z,15.03
2022-10-10T21:19:04.878Z,13.67
2022-10-10T21:21:35.206Z,14.27
2022-10-10T21:24:05.214Z,13.20
2022-10-10T21:26:33.944Z,14.17
2022-10-10T21:29:02.448Z,14.07
2022-10-10T21:31:35.555Z,13.73
2022-10-10T21:34:06.298Z,13.50
2022-10-10T21:36:34.873Z,11.27
2022-10-10T21:39:03.662Z,11.10
2022-10-10T21:41:32.221Z,11.13
2022-10-10T21:44:01.281Z,10.07
2022-10-10T21:46:36.573Z,13.30
2022-10-10T21:49:08.709Z,11.57
2022-10-10T21:51:39.081Z,10.57
2022-10-10T21:54:08.287Z,10.73
2022-10-10T21:56:37.193Z,10.20
2022-10-10T21:59:06.306Z,9.93
2022-10-10T22:01:37.669Z,10.27
2022-10-10T22:04:07.247Z,10.60
2022-10-10T22:06:35.918Z,10.00
2022-10-10T22:09:05.574Z,10.37
2022-10-10T22:11:35.489Z,10.80
2022-10-10T22:14:04.719Z,11.03
2022-10-10T22:16:35.237Z,10.70
2022-10-10T22:19:04.369Z,11.23
2022-10-10T22:21:34.800Z,10.57
2022-10-10T22:24:06.805Z,11.00
2022-10-10T22:26:35.477Z,10.47
2022-10-10T22:29:04.374Z,10.33
2022-10-10T22:31:35.488Z,10.30
2022-10-10T22:34:05.505Z,10.07
2022-10-10T22:36:34.060Z,10.00
2022-10-10T22:39:02.500Z,9.80
2022-10-10T22:41:56.628Z,11.37
2022-10-10T22:44:25.954Z,10.33
2022-10-10T22:46:54.369Z,10.60
2022-10-10T22:49:24.314Z,10.60
2022-10-10T22:51:52.875Z,10.77
2022-10-10T22:54:21.336Z,12.80
2022-10-10T22:56:49.725Z,13.07
2022-10-10T22:59:18.120Z,14.17
2022-10-10T23:01:47.352Z,14.57
2022-10-10T23:04:16.093Z,15.17
2022-10-10T23:06:45.886Z,15.33
2022-10-10T23:09:14.879Z,15.87
2022-10-10T23:11:43.350Z,15.70
2022-10-10T23:14:11.856Z,16.63
2022-10-10T23:16:40.957Z,16.73
2022-10-10T23:19:09.586Z,16.47
2022-10-10T23:21:37.971Z,17.73
2022-10-10T23:24:08.357Z,16.27
2022-10-10T23:26:36.789Z,16.17
2022-10-10T23:29:05.208Z,16.37
2022-10-10T23:31:33.667Z,17.27
2022-10-10T23:34:02.149Z,16.40
2022-10-10T23:36:30.540Z,15.43
2022-10-10T23:38:59.005Z,16.33
2022-10-10T23:41:28.890Z,15.23
2022-10-10T23:43:57.389Z,15.40
2022-10-10T23:46:25.801Z,11.13
2022-10-10T23:48:54.220Z,12.30
2022-10-10T23:51:22.654Z,12.77
2022-10-10T23:53:51.138Z,11.83
2022-10-10T23:56:19.523Z,12.23
2022-10-10T23:58:49.402Z,12.47
